sensor_id;sensor_type;location;lat;lon;timestamp;temperature;humidity
8988;DHT22;4529;51.360;12.474;2023-01-29T00:02:52;1.00;99.90
8988;DHT22;4529;51.360;12.474;2023-01-29T00:07:55;0.90;99.90
8988;DHT22;4529;51.360;12.474;2023-01-29T00:12:59;0.90;99.90
8988;DHT22;4529;51.360;12.474;2023-01-29T00:18:04;0.80;99.90
8988;DHT22;4529;51.360;12.474;2023-01-29T00:23:07;0.80;99.90
8988;DHT22;4529;51.360;12.474;2023-01-29T00:28:11;0.80;99.90
8988;DHT22;4529;51.360;12.474;2023-01-29T00:33:15;0.80;99.90
8988;DHT22;4529;51.360;12.474;2023-01-29T00:38:19;0.80;99.90
8988;DHT22;4529;51.360;12.474;2023-01-29T00:43:23;0.80;99.90
8988;DHT22;4529;51.360;12.474;2023-01-29T00:48:26;0.70;99.90
8988;DHT22;4529;51.360;12.474;2023-01-29T00:53:29;0.70;99.90
8988;DHT22;4529;51.360;12.474;2023-01-29T00:58:33;0.70;99.90
8988;DHT22;4529;51.360;12.474;2023-01-29T01:03:36;0.70;99.90
8988;DHT22;4529;51.360;12.474;2023-01-29T01:08:40;0.60;99.90
8988;DHT22;4529;51.360;12.474;2023-01-29T01:13:44;0.60;99.90
8988;DHT22;4529;51.360;12.474;2023-01-29T01:18:47;0.60;99.90
8988;DHT22;4529;51.360;12.474;2023-01-29T01:23:51;0.60;99.90
8988;DHT22;4529;51.360;12.474;2023-01-29T01:28:54;0.60;99.90
8988;DHT22;4529;51.360;12.474;2023-01-29T01:33:58;0.50;99.90
8988;DHT22;4529;51.360;12.474;2023-01-29T01:39:02;0.40;99.90
8988;DHT22;4529;51.360;12.474;2023-01-29T01:44:06;0.30;99.90
8988;DHT22;4529;51.360;12.474;2023-01-29T01:49:28;0.20;99.90
8988;DHT22;4529;51.360;12.474;2023-01-29T01:54:32;0.20;99.90
8988;DHT22;4529;51.360;12.474;2023-01-29T01:59:36;0.20;99.90
8988;DHT22;4529;51.360;12.474;2023-01-29T02:04:41;0.20;99.90
8988;DHT22;4529;51.360;12.474;2023-01-29T02:09:52;0.10;99.90
8988;DHT22;4529;51.360;12.474;2023-01-29T02:14:55;0.10;99.90
8988;DHT22;4529;51.360;12.474;2023-01-29T02:20:08;0.00;99.90
8988;DHT22;4529;51.360;12.474;2023-01-29T02:25:39;0.00;99.90
8988;DHT22;4529;51.360;12.474;2023-01-29T02:31:06;0.10;99.90
8988;DHT22;4529;51.360;12.474;2023-01-29T02:42:14;0.20;99.90
8988;DHT22;4529;51.360;12.474;2023-01-29T02:47:26;0.20;99.90
8988;DHT22;4529;51.360;12.474;2023-01-29T02:52:26;0.20;99.90
8988;DHT22;4529;51.360;12.474;2023-01-29T02:57:29;0.20;99.90
8988;DHT22;4529;51.360;12.474;2023-01-29T03:02:36;0.20;99.90
8988;DHT22;4529;51.360;12.474;2023-01-29T03:07:36;0.30;99.90
8988;DHT22;4529;51.360;12.474;2023-01-29T03:12:39;0.20;99.90
8988;DHT22;4529;51.360;12.474;2023-01-29T03:18:05;0.20;99.90
8988;DHT22;4529;51.360;12.474;2023-01-29T03:23:09;0.20;99.90
8988;DHT22;4529;51.360;12.474;2023-01-29T03:28:11;0.20;99.90
8988;DHT22;4529;51.360;12.474;2023-01-29T03:33:15;0.20;99.90
8988;DHT22;4529;51.360;12.474;2023-01-29T03:38:23;0.10;99.90
8988;DHT22;4529;51.360;12.474;2023-01-29T03:43:33;0.10;99.90
8988;DHT22;4529;51.360;12.474;2023-01-29T03:48:38;0.10;99.90
8988;DHT22;4529;51.360;12.474;2023-01-29T03:53:46;0.10;99.90
8988;DHT22;4529;51.360;12.474;2023-01-29T03:58:57;0.00;99.90
8988;DHT22;4529;51.360;12.474;2023-01-29T04:04:13;0.00;99.90
8988;DHT22;4529;51.360;12.474;2023-01-29T04:09:21;0.00;99.90
8988;DHT22;4529;51.360;12.474;2023-01-29T04:14:22;0.00;99.90
8988;DHT22;4529;51.360;12.474;2023-01-29T04:19:26;0.00;99.90
8988;DHT22;4529;51.360;12.474;2023-01-29T04:24:29;0.00;99.90
8988;DHT22;4529;51.360;12.474;2023-01-29T04:45:35;0.00;99.90
8988;DHT22;4529;51.360;12.474;2023-01-29T04:50:51;0.10;99.90
8988;DHT22;4529;51.360;12.474;2023-01-29T04:55:59;0.10;99.90
8988;DHT22;4529;51.360;12.474;2023-01-29T05:01:01;0.10;99.90
8988;DHT22;4529;51.360;12.474;2023-01-29T05:06:04;0.10;99.90
8988;DHT22;4529;51.360;12.474;2023-01-29T05:11:08;0.10;99.90
8988;DHT22;4529;51.360;12.474;2023-01-29T05:16:27;0.10;99.90
8988;DHT22;4529;51.360;12.474;2023-01-29T05:21:31;0.10;99.90
8988;DHT22;4529;51.360;12.474;2023-01-29T05:26:33;0.10;99.90
8988;DHT22;4529;51.360;12.474;2023-01-29T05:31:38;0.10;99.90
8988;DHT22;4529;51.360;12.474;2023-01-29T05:36:42;0.10;99.90
8988;DHT22;4529;51.360;12.474;2023-01-29T05:41:45;0.10;99.90
8988;DHT22;4529;51.360;12.474;2023-01-29T05:46:49;0.10;99.90
8988;DHT22;4529;51.360;12.474;2023-01-29T05:52:01;0.10;99.90
8988;DHT22;4529;51.360;12.474;2023-01-29T05:57:04;0.10;99.90
8988;DHT22;4529;51.360;12.474;2023-01-29T06:02:09;0.20;99.90
8988;DHT22;4529;51.360;12.474;2023-01-29T06:07:13;0.20;99.90
8988;DHT22;4529;51.360;12.474;2023-01-29T06:12:16;0.20;99.90
8988;DHT22;4529;51.360;12.474;2023-01-29T06:17:20;0.20;99.90
8988;DHT22;4529;51.360;12.474;2023-01-29T06:22:23;0.20;99.90
8988;DHT22;4529;51.360;12.474;2023-01-29T06:27:27;0.20;99.90
8988;DHT22;4529;51.360;12.474;2023-01-29T06:32:32;0.20;99.90
8988;DHT22;4529;51.360;12.474;2023-01-29T06:37:35;0.10;99.90
8988;DHT22;4529;51.360;12.474;2023-01-29T06:42:38;0.20;99.90
8988;DHT22;4529;51.360;12.474;2023-01-29T06:47:45;0.20;99.90
8988;DHT22;4529;51.360;12.474;2023-01-29T06:52:48;0.20;99.90
8988;DHT22;4529;51.360;12.474;2023-01-29T06:57:52;0.30;99.90
8988;DHT22;4529;51.360;12.474;2023-01-29T07:02:55;0.30;99.90
8988;DHT22;4529;51.360;12.474;2023-01-29T07:07:59;0.30;99.90
8988;DHT22;4529;51.360;12.474;2023-01-29T07:13:02;0.30;99.90
8988;DHT22;4529;51.360;12.474;2023-01-29T07:18:07;0.30;99.90
8988;DHT22;4529;51.360;12.474;2023-01-29T07:23:13;0.30;99.90
8988;DHT22;4529;51.360;12.474;2023-01-29T07:28:16;0.40;99.90
8988;DHT22;4529;51.360;12.474;2023-01-29T07:33:19;0.40;99.90
8988;DHT22;4529;51.360;12.474;2023-01-29T07:38:24;0.50;99.90
8988;DHT22;4529;51.360;12.474;2023-01-29T07:43:28;0.50;99.90
8988;DHT22;4529;51.360;12.474;2023-01-29T07:48:32;0.50;99.90
8988;DHT22;4529;51.360;12.474;2023-01-29T07:53:35;0.50;99.90
8988;DHT22;4529;51.360;12.474;2023-01-29T07:58:39;0.60;99.90
8988;DHT22;4529;51.360;12.474;2023-01-29T08:03:42;0.60;99.90
8988;DHT22;4529;51.360;12.474;2023-01-29T08:08:46;0.60;99.90
8988;DHT22;4529;51.360;12.474;2023-01-29T08:13:49;0.60;99.90
8988;DHT22;4529;51.360;12.474;2023-01-29T08:18:53;0.60;99.90
8988;DHT22;4529;51.360;12.474;2023-01-29T08:23:57;0.70;99.90
8988;DHT22;4529;51.360;12.474;2023-01-29T08:29:01;0.70;99.90
8988;DHT22;4529;51.360;12.474;2023-01-29T08:34:04;0.70;99.90
8988;DHT22;4529;51.360;12.474;2023-01-29T08:39:08;0.80;99.90
8988;DHT22;4529;51.360;12.474;2023-01-29T08:44:11;0.70;99.90
8988;DHT22;4529;51.360;12.474;2023-01-29T08:49:20;0.80;99.90
8988;DHT22;4529;51.360;12.474;2023-01-29T08:54:23;0.80;99.90
8988;DHT22;4529;51.360;12.474;2023-01-29T08:59:27;0.90;99.90
8988;DHT22;4529;51.360;12.474;2023-01-29T09:04:31;0.90;99.90
8988;DHT22;4529;51.360;12.474;2023-01-29T09:09:35;0.90;99.90
8988;DHT22;4529;51.360;12.474;2023-01-29T09:14:40;0.90;99.90
8988;DHT22;4529;51.360;12.474;2023-01-29T09:19:46;0.90;99.90
8988;DHT22;4529;51.360;12.474;2023-01-29T09:24:50;0.90;99.90
8988;DHT22;4529;51.360;12.474;2023-01-29T09:29:54;1.00;99.90
8988;DHT22;4529;51.360;12.474;2023-01-29T09:34:57;1.00;99.90
8988;DHT22;4529;51.360;12.474;2023-01-29T09:40:01;1.00;99.90
8988;DHT22;4529;51.360;12.474;2023-01-29T09:50:12;0.80;99.90
8988;DHT22;4529;51.360;12.474;2023-01-29T09:55:31;0.90;99.90
8988;DHT22;4529;51.360;12.474;2023-01-29T10:00:44;0.80;99.90
8988;DHT22;4529;51.360;12.474;2023-01-29T10:16:53;1.20;99.90
8988;DHT22;4529;51.360;12.474;2023-01-29T10:21:58;1.40;99.90
8988;DHT22;4529;51.360;12.474;2023-01-29T10:26:58;1.50;99.90
8988;DHT22;4529;51.360;12.474;2023-01-29T10:32:01;1.60;99.90
8988;DHT22;4529;51.360;12.474;2023-01-29T10:37:17;1.50;99.90
8988;DHT22;4529;51.360;12.474;2023-01-29T10:42:24;1.50;99.90
8988;DHT22;4529;51.360;12.474;2023-01-29T10:48:03;1.60;99.90
8988;DHT22;4529;51.360;12.474;2023-01-29T10:53:18;1.60;99.90
8988;DHT22;4529;51.360;12.474;2023-01-29T10:58:35;1.60;99.90
8988;DHT22;4529;51.360;12.474;2023-01-29T11:03:36;1.60;99.90
8988;DHT22;4529;51.360;12.474;2023-01-29T11:08:51;1.60;99.90
8988;DHT22;4529;51.360;12.474;2023-01-29T11:13:57;1.70;99.90
8988;DHT22;4529;51.360;12.474;2023-01-29T11:18:58;1.60;99.90
8988;DHT22;4529;51.360;12.474;2023-01-29T11:24:13;1.70;99.90
8988;DHT22;4529;51.360;12.474;2023-01-29T11:29:31;1.80;99.90
8988;DHT22;4529;51.360;12.474;2023-01-29T11:34:33;1.90;99.90
8988;DHT22;4529;51.360;12.474;2023-01-29T11:39:37;1.80;99.90
8988;DHT22;4529;51.360;12.474;2023-01-29T11:44:41;1.90;99.90
8988;DHT22;4529;51.360;12.474;2023-01-29T11:49:51;1.90;99.90
8988;DHT22;4529;51.360;12.474;2023-01-29T11:54:58;2.00;99.90
8988;DHT22;4529;51.360;12.474;2023-01-29T12:00:20;2.00;99.90
8988;DHT22;4529;51.360;12.474;2023-01-29T12:05:23;2.00;99.90
8988;DHT22;4529;51.360;12.474;2023-01-29T12:10:30;2.10;99.90
8988;DHT22;4529;51.360;12.474;2023-01-29T12:15:32;2.20;99.90
8988;DHT22;4529;51.360;12.474;2023-01-29T12:20:43;2.20;99.90
8988;DHT22;4529;51.360;12.474;2023-01-29T12:31:35;2.30;99.90
8988;DHT22;4529;51.360;12.474;2023-01-29T12:36:51;2.30;99.90
8988;DHT22;4529;51.360;12.474;2023-01-29T12:41:58;2.30;99.90
8988;DHT22;4529;51.360;12.474;2023-01-29T12:47:02;2.30;99.90
8988;DHT22;4529;51.360;12.474;2023-01-29T12:52:12;2.40;99.90
8988;DHT22;4529;51.360;12.474;2023-01-29T12:57:22;2.40;99.90
8988;DHT22;4529;51.360;12.474;2023-01-29T13:02:39;2.50;99.90
8988;DHT22;4529;51.360;12.474;2023-01-29T13:07:42;2.50;99.90
8988;DHT22;4529;51.360;12.474;2023-01-29T13:12:59;2.50;99.90
8988;DHT22;4529;51.360;12.474;2023-01-29T13:23:36;2.60;99.90
8988;DHT22;4529;51.360;12.474;2023-01-29T13:28:37;2.50;99.90
8988;DHT22;4529;51.360;12.474;2023-01-29T13:33:41;2.60;99.90
8988;DHT22;4529;51.360;12.474;2023-01-29T13:38:45;2.60;99.90
8988;DHT22;4529;51.360;12.474;2023-01-29T13:43:49;2.60;99.90
8988;DHT22;4529;51.360;12.474;2023-01-29T13:48:53;2.60;99.90
8988;DHT22;4529;51.360;12.474;2023-01-29T13:53:59;2.60;99.90
8988;DHT22;4529;51.360;12.474;2023-01-29T13:59:01;2.60;99.90
8988;DHT22;4529;51.360;12.474;2023-01-29T14:04:38;2.60;99.90
8988;DHT22;4529;51.360;12.474;2023-01-29T14:19:52;2.60;99.90
8988;DHT22;4529;51.360;12.474;2023-01-29T14:24:59;2.60;99.90
8988;DHT22;4529;51.360;12.474;2023-01-29T14:30:00;2.60;99.90
8988;DHT22;4529;51.360;12.474;2023-01-29T14:35:04;2.60;99.90
8988;DHT22;4529;51.360;12.474;2023-01-29T14:45:37;2.60;99.90
8988;DHT22;4529;51.360;12.474;2023-01-29T14:50:44;2.60;99.90
8988;DHT22;4529;51.360;12.474;2023-01-29T14:55:56;2.70;99.90
8988;DHT22;4529;51.360;12.474;2023-01-29T15:00:58;2.70;99.90
8988;DHT22;4529;51.360;12.474;2023-01-29T15:06:02;2.70;99.90
8988;DHT22;4529;51.360;12.474;2023-01-29T15:11:11;2.60;99.90
8988;DHT22;4529;51.360;12.474;2023-01-29T15:16:18;2.60;99.90
8988;DHT22;4529;51.360;12.474;2023-01-29T15:21:20;2.60;99.90
8988;DHT22;4529;51.360;12.474;2023-01-29T15:26:24;2.60;99.90
8988;DHT22;4529;51.360;12.474;2023-01-29T15:31:28;2.50;99.90
8988;DHT22;4529;51.360;12.474;2023-01-29T15:36:32;2.50;99.90
8988;DHT22;4529;51.360;12.474;2023-01-29T15:41:36;2.50;99.90
8988;DHT22;4529;51.360;12.474;2023-01-29T15:46:39;2.50;99.90
8988;DHT22;4529;51.360;12.474;2023-01-29T15:51:43;2.40;99.90
8988;DHT22;4529;51.360;12.474;2023-01-29T15:56:47;2.40;99.90
8988;DHT22;4529;51.360;12.474;2023-01-29T16:01:51;2.50;99.90
8988;DHT22;4529;51.360;12.474;2023-01-29T16:06:55;2.40;99.90
8988;DHT22;4529;51.360;12.474;2023-01-29T16:11:59;2.40;99.90
8988;DHT22;4529;51.360;12.474;2023-01-29T16:17:24;2.40;99.90
8988;DHT22;4529;51.360;12.474;2023-01-29T16:22:33;2.50;99.90
8988;DHT22;4529;51.360;12.474;2023-01-29T16:27:36;2.40;99.90
8988;DHT22;4529;51.360;12.474;2023-01-29T16:32:39;2.40;99.90
8988;DHT22;4529;51.360;12.474;2023-01-29T16:37:46;2.40;99.90
8988;DHT22;4529;51.360;12.474;2023-01-29T16:42:46;2.40;99.90
8988;DHT22;4529;51.360;12.474;2023-01-29T16:47:59;2.40;99.90
8988;DHT22;4529;51.360;12.474;2023-01-29T16:53:12;2.40;99.90
8988;DHT22;4529;51.360;12.474;2023-01-29T16:58:25;2.40;99.90
8988;DHT22;4529;51.360;12.474;2023-01-29T17:03:26;2.40;99.90
8988;DHT22;4529;51.360;12.474;2023-01-29T17:08:32;2.50;99.90
8988;DHT22;4529;51.360;12.474;2023-01-29T17:13:37;2.60;99.90
8988;DHT22;4529;51.360;12.474;2023-01-29T17:18:40;2.70;99.90
8988;DHT22;4529;51.360;12.474;2023-01-29T17:23:44;2.70;99.90
8988;DHT22;4529;51.360;12.474;2023-01-29T17:28:48;2.70;99.90
8988;DHT22;4529;51.360;12.474;2023-01-29T17:33:51;2.60;99.90
8988;DHT22;4529;51.360;12.474;2023-01-29T17:38:54;2.50;99.90
8988;DHT22;4529;51.360;12.474;2023-01-29T17:43:58;2.40;99.90
8988;DHT22;4529;51.360;12.474;2023-01-29T17:49:01;2.40;99.90
8988;DHT22;4529;51.360;12.474;2023-01-29T17:54:05;2.40;99.90
8988;DHT22;4529;51.360;12.474;2023-01-29T17:59:13;2.40;99.90
8988;DHT22;4529;51.360;12.474;2023-01-29T18:04:16;2.30;99.90
8988;DHT22;4529;51.360;12.474;2023-01-29T18:09:20;2.40;99.90
8988;DHT22;4529;51.360;12.474;2023-01-29T18:14:24;2.40;99.90
8988;DHT22;4529;51.360;12.474;2023-01-29T18:19:28;2.40;99.90
8988;DHT22;4529;51.360;12.474;2023-01-29T18:24:32;2.40;99.90
8988;DHT22;4529;51.360;12.474;2023-01-29T18:29:35;2.50;99.90
8988;DHT22;4529;51.360;12.474;2023-01-29T18:34:39;2.60;99.90
8988;DHT22;4529;51.360;12.474;2023-01-29T18:39:42;2.50;99.90
8988;DHT22;4529;51.360;12.474;2023-01-29T18:44:46;2.50;99.90
8988;DHT22;4529;51.360;12.474;2023-01-29T18:49:49;2.40;99.90
8988;DHT22;4529;51.360;12.474;2023-01-29T18:54:53;2.40;99.90
8988;DHT22;4529;51.360;12.474;2023-01-29T18:59:56;2.30;99.90
8988;DHT22;4529;51.360;12.474;2023-01-29T19:05:00;2.40;99.90
8988;DHT22;4529;51.360;12.474;2023-01-29T19:10:04;2.40;99.90
8988;DHT22;4529;51.360;12.474;2023-01-29T19:15:08;2.30;99.90
8988;DHT22;4529;51.360;12.474;2023-01-29T19:20:12;2.40;99.90
8988;DHT22;4529;51.360;12.474;2023-01-29T19:25:15;2.40;99.90
8988;DHT22;4529;51.360;12.474;2023-01-29T19:30:19;2.40;99.90
8988;DHT22;4529;51.360;12.474;2023-01-29T19:35:22;2.40;99.90
8988;DHT22;4529;51.360;12.474;2023-01-29T19:40:26;2.50;99.90
8988;DHT22;4529;51.360;12.474;2023-01-29T19:45:29;2.40;99.90
8988;DHT22;4529;51.360;12.474;2023-01-29T19:50:36;2.40;99.90
8988;DHT22;4529;51.360;12.474;2023-01-29T19:55:39;2.40;99.90
8988;DHT22;4529;51.360;12.474;2023-01-29T20:00:43;2.40;99.90
8988;DHT22;4529;51.360;12.474;2023-01-29T20:05:46;2.40;99.90
8988;DHT22;4529;51.360;12.474;2023-01-29T20:10:50;2.30;99.90
8988;DHT22;4529;51.360;12.474;2023-01-29T20:15:54;2.30;99.90
8988;DHT22;4529;51.360;12.474;2023-01-29T20:21:04;2.30;99.90
8988;DHT22;4529;51.360;12.474;2023-01-29T20:26:07;2.30;99.90
8988;DHT22;4529;51.360;12.474;2023-01-29T20:31:10;2.30;99.90
8988;DHT22;4529;51.360;12.474;2023-01-29T20:36:14;2.20;99.90
8988;DHT22;4529;51.360;12.474;2023-01-29T20:41:18;2.10;99.90
8988;DHT22;4529;51.360;12.474;2023-01-29T20:46:22;2.10;99.90
8988;DHT22;4529;51.360;12.474;2023-01-29T20:51:34;2.00;99.90
8988;DHT22;4529;51.360;12.474;2023-01-29T20:56:38;2.00;99.90
8988;DHT22;4529;51.360;12.474;2023-01-29T21:01:41;1.90;99.90
8988;DHT22;4529;51.360;12.474;2023-01-29T21:06:45;1.80;99.90
8988;DHT22;4529;51.360;12.474;2023-01-29T21:11:49;1.70;99.90
8988;DHT22;4529;51.360;12.474;2023-01-29T21:16:53;1.70;99.90
8988;DHT22;4529;51.360;12.474;2023-01-29T21:21:57;1.60;99.90
8988;DHT22;4529;51.360;12.474;2023-01-29T21:27:00;1.60;99.90
8988;DHT22;4529;51.360;12.474;2023-01-29T21:32:05;1.60;99.90
8988;DHT22;4529;51.360;12.474;2023-01-29T21:37:09;1.60;99.90
8988;DHT22;4529;51.360;12.474;2023-01-29T21:42:12;1.60;99.90
8988;DHT22;4529;51.360;12.474;2023-01-29T21:47:16;1.70;99.90
8988;DHT22;4529;51.360;12.474;2023-01-29T21:52:19;1.80;99.90
8988;DHT22;4529;51.360;12.474;2023-01-29T21:57:23;1.90;99.90
8988;DHT22;4529;51.360;12.474;2023-01-29T22:02:27;1.70;99.90
8988;DHT22;4529;51.360;12.474;2023-01-29T22:07:32;1.50;99.90
8988;DHT22;4529;51.360;12.474;2023-01-29T22:12:36;1.50;99.90
8988;DHT22;4529;51.360;12.474;2023-01-29T22:17:41;1.40;99.90
8988;DHT22;4529;51.360;12.474;2023-01-29T22:22:44;1.40;99.90
8988;DHT22;4529;51.360;12.474;2023-01-29T22:27:47;1.40;99.90
8988;DHT22;4529;51.360;12.474;2023-01-29T22:32:51;1.30;99.90
8988;DHT22;4529;51.360;12.474;2023-01-29T22:37:55;1.30;99.90
8988;DHT22;4529;51.360;12.474;2023-01-29T22:42:59;1.30;99.90
8988;DHT22;4529;51.360;12.474;2023-01-29T22:48:08;1.30;99.90
8988;DHT22;4529;51.360;12.474;2023-01-29T22:53:11;1.30;99.90
8988;DHT22;4529;51.360;12.474;2023-01-29T22:58:14;1.30;99.90
8988;DHT22;4529;51.360;12.474;2023-01-29T23:03:18;1.30;99.90
8988;DHT22;4529;51.360;12.474;2023-01-29T23:08:22;1.40;99.90
8988;DHT22;4529;51.360;12.474;2023-01-29T23:13:25;1.40;99.90
8988;DHT22;4529;51.360;12.474;2023-01-29T23:18:38;1.40;99.90
8988;DHT22;4529;51.360;12.474;2023-01-29T23:23:41;1.40;99.90
8988;DHT22;4529;51.360;12.474;2023-01-29T23:28:45;1.40;99.90
8988;DHT22;4529;51.360;12.474;2023-01-29T23:33:48;1.40;99.90
8988;DHT22;4529;51.360;12.474;2023-01-29T23:38:53;1.40;99.90
8988;DHT22;4529;51.360;12.474;2023-01-29T23:43:57;1.40;99.90
8988;DHT22;4529;51.360;12.474;2023-01-29T23:49:09;1.40;99.90
8988;DHT22;4529;51.360;12.474;2023-01-29T23:54:13;1.40;99.90
8988;DHT22;4529;51.360;12.474;2023-01-29T23:59:17;1.30;99.90
